Anton, CO

8:52 PM MST on December 19, 2014 (GMT -0700)
Cope, Colorado | Change Station
CLOSE
Current Station
Personal Weather Station
Location: Cope, CO
Elevation: 4423 ft
Nearby Weather Stations

Elev 4423 ft 39.67 °N, 102.85 °W | Updated 6 minutes ago

Partly Cloudy
Partly Cloudy
27.9 °F
Feels Like 28 °F
N
1.7
Wind Variable Wind from WSW

Today
High -- | Low -- °F
--% Chance of Precip.
Yesterday
High -- | Low -- °F
Precip. -- in
7:09 AM 4:31 PM
Waning Crescent, 5% visible
Pressure 30.13 in
Visibility 10.0 miles
Clouds Clear
Windchill 28 °F
Dew Point 23 °F
Humidity 82%
Rainfall 0.00 in
Snow Depth Not available.
UV 0 out of 12
Pollen .10 out of 12
Air Quality Not available.
Flu Activity Not available.
METAR KAKO 200253Z AUTO 20008KT 10SM CLR M01/M07 A3002 RMK AO2 SLP202 T10111067 50001

More Conditions Fewer Conditions

Pressure 30.13 in
Visibility 10.0 miles
Clouds Clear
Windchill 28 °F
Dew Point 23 °F
Humidity 82%
Rainfall 0.00 in
Snow Depth Not available.
UV 0 out of 12
Pollen .10 out of 12
Air Quality Not available.
Flu Activity Not available.
METAR KAKO 200253Z AUTO 20008KT 10SM CLR M01/M07 A3002 RMK AO2 SLP202 T10111067 50001

More Conditions Fewer Conditions

10-Day Weather Forecast

Almanac

Astronomy

Dec. 19, 2014 Rise Set
Actual Time
Civil Twilight
Nautical Twilight
Astronomical Twilight
Moon
Length of Visible Light
Length of Day
Tomorrow will be .
, % of the Moon is Illuminated

Today's Extremes

State Highs State Lows

Community

WunderPhotos

Upload Photos

1,779,126 photos uploaded!

WunderBlogs® & News

Nearby

Air Quality

  Air Quality AQ Index Pollutant
Not available.

Snow Depth

Station Depth Elevation

Earthquake Activity

City Distance Mag. Time & Date
Minimum magnitude displayed is 2.5.

Coastal Water Temperatures

Place Temperature

Nearby Weather Stations